createdAt,value
2019-02-11T00:01:39.109Z,7.39
2019-02-11T00:04:09.509Z,7.29
2019-02-11T00:06:39.825Z,7.25
2019-02-11T00:09:10.990Z,7.22
2019-02-11T00:11:44.411Z,7.03
2019-02-11T00:14:14.798Z,6.70
2019-02-11T00:16:45.117Z,6.28
2019-02-11T00:19:15.507Z,6.13
2019-02-11T00:21:45.949Z,6.08
2019-02-11T00:24:16.354Z,5.80
2019-02-11T00:26:46.703Z,5.74
2019-02-11T00:29:17.088Z,5.66
2019-02-11T00:31:47.800Z,5.54
2019-02-11T00:34:18.223Z,5.52
2019-02-11T00:36:48.747Z,5.44
2019-02-11T00:39:19.047Z,5.41
2019-02-11T00:41:49.476Z,5.40
2019-02-11T00:44:21.654Z,5.32
2019-02-11T00:46:52.083Z,5.24
2019-02-11T00:49:22.464Z,5.27
2019-02-11T00:51:52.918Z,5.15
2019-02-11T00:54:23.312Z,5.11
2019-02-11T00:56:53.665Z,4.98
2019-02-11T00:59:24.073Z,4.96
2019-02-11T01:01:54.823Z,4.92
2019-02-11T01:04:25.196Z,4.92
2019-02-11T01:06:55.483Z,4.92
2019-02-11T01:09:25.915Z,4.88
2019-02-11T01:11:56.230Z,4.90
2019-02-11T01:14:26.655Z,4.87
2019-02-11T01:16:56.952Z,4.90
2019-02-11T01:19:27.316Z,4.87
2019-02-11T01:21:57.944Z,4.84
2019-02-11T01:24:28.392Z,4.82
2019-02-11T01:26:58.802Z,4.76
2019-02-11T01:29:29.174Z,4.74
2019-02-11T01:31:59.561Z,4.67
2019-02-11T01:34:29.955Z,4.66
2019-02-11T01:37:00.341Z,4.57
2019-02-11T01:39:30.845Z,4.60
2019-02-11T01:42:01.160Z,4.51
2019-02-11T01:44:31.430Z,4.48
2019-02-11T01:47:02.159Z,4.51
2019-02-11T01:49:32.494Z,4.44
2019-02-11T01:52:02.806Z,4.41
2019-02-11T01:54:33.590Z,4.40
2019-02-11T01:57:03.992Z,4.38
2019-02-11T01:59:34.281Z,4.37
2019-02-11T02:02:04.699Z,4.49
2019-02-11T02:04:35.065Z,4.35
2019-02-11T02:07:06.335Z,4.31
2019-02-11T02:09:36.658Z,4.28
2019-02-11T02:12:07.045Z,4.26
2019-02-11T02:14:37.496Z,4.32
2019-02-11T02:17:07.870Z,4.32
2019-02-11T02:19:38.253Z,4.33
2019-02-11T02:22:08.690Z,4.33
2019-02-11T02:24:39.359Z,4.30
2019-02-11T02:27:09.971Z,4.27
2019-02-11T02:29:40.361Z,4.19
2019-02-11T02:32:11.103Z,4.18
2019-02-11T02:34:41.489Z,4.15
2019-02-11T02:37:11.827Z,4.16
2019-02-11T02:39:42.253Z,4.18
2019-02-11T02:42:12.549Z,4.20
2019-02-11T02:44:42.985Z,4.16
2019-02-11T02:47:13.358Z,4.15
2019-02-11T02:49:43.686Z,4.18
2019-02-11T02:52:14.089Z,4.18
2019-02-11T02:54:44.453Z,4.19
2019-02-11T02:57:14.965Z,4.24
2019-02-11T02:59:45.452Z,4.13
2019-02-11T03:02:15.918Z,4.07
2019-02-11T03:04:46.278Z,4.02
2019-02-11T03:07:17.384Z,4.00
2019-02-11T03:09:47.769Z,4.00
2019-02-11T03:12:18.072Z,3.94
2019-02-11T03:14:48.448Z,3.95
2019-02-11T03:17:18.794Z,3.91
2019-02-11T03:19:49.549Z,3.93
2019-02-11T03:22:20.557Z,3.97
2019-02-11T03:24:50.987Z,4.01
2019-02-11T03:27:21.315Z,4.07
2019-02-11T03:29:51.736Z,4.10
2019-02-11T03:32:22.075Z,4.12
2019-02-11T03:34:52.933Z,4.11
2019-02-11T03:37:23.270Z,4.21
2019-02-11T03:39:54.604Z,4.20
2019-02-11T03:42:24.899Z,4.21
2019-02-11T03:44:55.189Z,4.22
2019-02-11T03:47:26.087Z,4.23
2019-02-11T03:49:56.898Z,4.23
2019-02-11T03:52:27.322Z,4.21
2019-02-11T03:54:57.783Z,4.27
2019-02-11T03:57:28.745Z,4.27
2019-02-11T03:59:59.046Z,4.31
2019-02-11T04:02:29.517Z,4.30
2019-02-11T04:05:00.310Z,4.29
2019-02-11T04:07:30.702Z,4.23
2019-02-11T04:10:01.619Z,4.15
2019-02-11T04:12:31.968Z,4.13
2019-02-11T04:15:02.388Z,4.16
2019-02-11T04:17:32.688Z,4.14
2019-02-11T04:20:03.139Z,4.15
2019-02-11T04:22:33.676Z,4.24
2019-02-11T04:25:04.121Z,4.17
2019-02-11T04:27:34.607Z,4.23
2019-02-11T04:30:05.440Z,4.23
2019-02-11T04:32:36.018Z,4.26
2019-02-11T04:35:07.562Z,4.32
2019-02-11T04:37:37.924Z,4.41
2019-02-11T04:40:09.406Z,4.42
2019-02-11T04:42:40.266Z,4.54
2019-02-11T04:45:11.177Z,4.44
2019-02-11T04:47:41.521Z,4.47
2019-02-11T04:50:11.938Z,4.64
2019-02-11T04:52:42.210Z,4.46
2019-02-11T04:55:12.547Z,4.42
2019-02-11T04:57:43.290Z,4.59
2019-02-11T05:00:13.682Z,4.48
2019-02-11T05:02:44.795Z,4.53
2019-02-11T05:05:16.242Z,4.51
2019-02-11T05:07:46.682Z,4.50
2019-02-11T05:10:17.110Z,4.63
2019-02-11T05:12:48.271Z,4.62
2019-02-11T05:15:18.654Z,4.56
2019-02-11T05:17:49.167Z,4.61
2019-02-11T05:20:19.546Z,4.64
2019-02-11T05:22:50.009Z,4.55
2019-02-11T05:25:20.473Z,4.55
2019-02-11T05:27:51.757Z,4.60
2019-02-11T05:30:22.067Z,4.58
2019-02-11T05:32:52.878Z,4.55
2019-02-11T05:35:23.348Z,4.61
2019-02-11T05:37:53.996Z,4.60
2019-02-11T05:40:24.366Z,4.58
2019-02-11T05:42:54.728Z,4.72
2019-02-11T05:45:25.066Z,4.72
2019-02-11T05:47:55.451Z,4.70
2019-02-11T05:50:25.941Z,4.75
2019-02-11T05:52:56.452Z,4.72
2019-02-11T05:55:27.168Z,4.72
2019-02-11T05:57:57.503Z,4.69
2019-02-11T06:00:27.897Z,4.67
2019-02-11T06:02:58.255Z,4.64
2019-02-11T06:05:28.627Z,4.67
2019-02-11T06:07:59.053Z,4.71
2019-02-11T06:10:29.809Z,4.74
2019-02-11T06:13:00.154Z,4.73
2019-02-11T06:15:30.521Z,4.67
2019-02-11T06:18:01.066Z,4.71
2019-02-11T06:20:31.581Z,4.69
2019-02-11T06:23:01.921Z,4.70
2019-02-11T06:25:32.397Z,4.72
2019-02-11T06:28:03.199Z,4.69
2019-02-11T06:30:33.679Z,4.72
2019-02-11T06:33:04.063Z,4.76
2019-02-11T06:35:34.516Z,4.84
2019-02-11T06:38:04.960Z,4.81
2019-02-11T06:40:35.331Z,4.95
2019-02-11T06:43:10.241Z,4.91
2019-02-11T06:45:41.849Z,4.94
2019-02-11T06:48:12.324Z,5.01
2019-02-11T06:50:42.789Z,4.96
2019-02-11T06:53:13.616Z,5.01
2019-02-11T06:55:43.965Z,4.93
2019-02-11T06:58:16.005Z,4.95
2019-02-11T07:00:46.410Z,4.99
2019-02-11T07:03:16.824Z,5.06
2019-02-11T07:05:47.145Z,5.07
2019-02-11T07:08:18.069Z,5.09
2019-02-11T07:10:55.495Z,5.09
2019-02-11T07:13:22.346Z,5.13
2019-02-11T07:15:52.689Z,5.08
2019-02-11T07:18:23.162Z,5.16
2019-02-11T07:20:53.482Z,5.15
2019-02-11T07:23:23.952Z,5.14
2019-02-11T07:25:54.270Z,5.13
2019-02-11T07:28:24.732Z,5.24
2019-02-11T07:30:55.147Z,5.30
2019-02-11T07:33:25.490Z,5.32
2019-02-11T07:35:55.916Z,5.28
2019-02-11T07:38:26.289Z,5.27
2019-02-11T07:40:57.098Z,5.23
2019-02-11T07:43:34.402Z,5.33
2019-02-11T07:46:18.316Z,5.36
2019-02-11T07:48:48.743Z,5.39
2019-02-11T07:51:19.601Z,5.54
2019-02-11T07:53:49.975Z,5.57
2019-02-11T07:56:20.344Z,5.50
2019-02-11T07:58:50.685Z,5.52
2019-02-11T08:01:21.050Z,5.53
2019-02-11T08:03:51.912Z,5.76
2019-02-11T08:06:22.803Z,5.58
2019-02-11T08:08:53.225Z,5.61
2019-02-11T08:11:23.686Z,5.62
2019-02-11T08:13:54.072Z,5.85
2019-02-11T08:16:24.864Z,5.88
2019-02-11T08:18:55.718Z,5.97
2019-02-11T08:21:26.123Z,6.03
2019-02-11T08:23:58.427Z,5.99
2019-02-11T08:26:29.561Z,6.00
2019-02-11T08:29:00.582Z,6.05
2019-02-11T08:31:30.991Z,6.07
2019-02-11T08:34:02.092Z,6.05
2019-02-11T08:36:33.727Z,5.99
2019-02-11T08:39:06.046Z,6.11
2019-02-11T08:41:36.935Z,6.12
2019-02-11T08:44:07.358Z,6.27
2019-02-11T08:46:38.277Z,6.16
2019-02-11T08:49:11.142Z,6.19
2019-02-11T08:51:46.201Z,6.32
2019-02-11T08:54:16.554Z,6.38
2019-02-11T08:56:47.244Z,6.36
2019-02-11T08:59:17.636Z,6.32
2019-02-11T09:01:53.122Z,6.55
2019-02-11T09:04:30.237Z,6.58
2019-02-11T09:07:00.683Z,6.63
2019-02-11T09:09:35.878Z,6.67
2019-02-11T09:12:06.645Z,6.66
2019-02-11T09:14:37.268Z,6.53
2019-02-11T09:17:10.274Z,6.44
2019-02-11T09:19:40.386Z,6.51
2019-02-11T09:22:10.861Z,6.64
2019-02-11T09:24:43.178Z,6.60
2019-02-11T09:27:13.764Z,6.57
2019-02-11T09:29:44.557Z,6.56
2019-02-11T09:32:15.107Z,6.52
2019-02-11T09:34:45.472Z,6.52
2019-02-11T09:37:16.132Z,6.49
2019-02-11T09:39:46.566Z,6.55
2019-02-11T09:42:17.188Z,6.72
2019-02-11T09:44:47.663Z,6.85
2019-02-11T09:47:24.015Z,6.80
2019-02-11T09:50:13.837Z,6.87
2019-02-11T09:52:44.164Z,6.75
2019-02-11T09:55:20.528Z,6.73
2019-02-11T09:57:51.707Z,6.72
2019-02-11T10:00:22.267Z,6.69
2019-02-11T10:02:52.722Z,6.71
2019-02-11T10:05:23.162Z,6.66
2019-02-11T10:07:54.137Z,6.90
2019-02-11T10:10:24.524Z,6.94
2019-02-11T10:12:54.922Z,6.94
2019-02-11T10:15:25.384Z,6.96
2019-02-11T10:17:56.343Z,6.93
2019-02-11T10:20:27.218Z,6.92
2019-02-11T10:22:58.250Z,6.99
2019-02-11T10:25:29.200Z,6.98
2019-02-11T10:28:02.260Z,6.89
2019-02-11T10:30:37.193Z,6.75
2019-02-11T10:33:08.676Z,6.63
2019-02-11T10:35:43.442Z,6.63
2019-02-11T10:38:13.891Z,6.63
2019-02-11T10:40:44.698Z,6.68
2019-02-11T10:43:15.615Z,6.77
2019-02-11T10:45:47.370Z,6.70
2019-02-11T10:48:17.790Z,6.80
2019-02-11T10:50:48.200Z,6.80
2019-02-11T10:53:18.600Z,6.90
2019-02-11T10:55:48.960Z,6.80
2019-02-11T10:58:30.263Z,6.81
2019-02-11T11:01:00.857Z,6.81
2019-02-11T11:03:31.576Z,6.83
2019-02-11T11:06:02.005Z,6.97
2019-02-11T11:08:32.466Z,6.96
2019-02-11T11:11:02.882Z,6.85
2019-02-11T11:13:33.279Z,6.83
2019-02-11T11:16:03.739Z,7.00
2019-02-11T11:18:34.476Z,6.80
2019-02-11T11:21:04.954Z,6.81
2019-02-11T11:23:35.439Z,6.75
2019-02-11T11:26:05.982Z,6.98
2019-02-11T11:28:36.739Z,7.27
2019-02-11T11:31:07.211Z,7.25
2019-02-11T11:33:37.565Z,6.84
2019-02-11T11:36:09.825Z,6.52
2019-02-11T11:38:40.288Z,6.06
2019-02-11T11:41:10.664Z,5.07
2019-02-11T11:43:41.193Z,4.98
2019-02-11T11:46:11.514Z,4.95
2019-02-11T11:48:42.775Z,5.21
2019-02-11T11:51:13.160Z,5.24
2019-02-11T11:53:43.517Z,5.47
2019-02-11T11:56:13.922Z,5.88
2019-02-11T11:58:44.848Z,6.37
2019-02-11T12:01:19.091Z,7.01
2019-02-11T12:03:47.982Z,7.51
2019-02-11T12:06:18.874Z,7.44
2019-02-11T12:08:59.164Z,7.41
2019-02-11T12:11:45.524Z,7.10
2019-02-11T12:14:16.034Z,6.83
2019-02-11T12:16:56.757Z,6.75
2019-02-11T12:19:19.502Z,6.67
2019-02-11T12:21:50.075Z,6.58
2019-02-11T12:24:20.488Z,6.76
2019-02-11T12:26:51.029Z,6.82
2019-02-11T12:29:21.454Z,6.75
2019-02-11T12:31:52.102Z,6.84
2019-02-11T12:34:22.927Z,6.93
2019-02-11T12:36:55.598Z,7.04
2019-02-11T12:39:26.102Z,7.00
2019-02-11T12:41:56.701Z,7.07
2019-02-11T12:44:27.023Z,7.13
2019-02-11T12:47:13.409Z,7.24
2019-02-11T12:49:30.208Z,7.22
2019-02-11T12:52:00.713Z,6.94
2019-02-11T12:54:31.249Z,6.89
2019-02-11T12:57:02.205Z,6.42
2019-02-11T12:59:32.759Z,6.22
2019-02-11T13:02:03.249Z,6.44
2019-02-11T13:04:34.197Z,6.67
2019-02-11T13:07:04.559Z,6.92
2019-02-11T13:09:35.085Z,6.98
2019-02-11T13:12:06.067Z,7.13
2019-02-11T13:14:36.492Z,7.08
2019-02-11T13:17:15.444Z,6.93
2019-02-11T13:19:46.154Z,6.98
2019-02-11T13:22:24.787Z,7.31
2019-02-11T13:24:55.317Z,7.24
2019-02-11T13:27:26.396Z,7.59
2019-02-11T13:29:56.901Z,7.85
2019-02-11T13:32:27.250Z,8.04
2019-02-11T13:34:57.714Z,8.29
2019-02-11T13:37:28.115Z,8.19
2019-02-11T13:39:58.610Z,8.00
2019-02-11T13:42:28.951Z,8.19
2019-02-11T13:44:59.384Z,8.44
2019-02-11T13:47:29.886Z,8.43
2019-02-11T13:50:00.423Z,8.38
2019-02-11T13:52:30.772Z,8.14
2019-02-11T13:55:01.253Z,7.92
2019-02-11T13:57:31.683Z,7.80
2019-02-11T14:00:02.568Z,7.53
2019-02-11T14:02:33.077Z,7.53
2019-02-11T14:05:04.229Z,7.44
2019-02-11T14:07:35.270Z,7.44
2019-02-11T14:10:05.976Z,7.41
2019-02-11T14:12:36.398Z,7.32
2019-02-11T14:15:07.064Z,7.30
2019-02-11T14:17:37.369Z,7.30
2019-02-11T14:20:09.753Z,7.29
2019-02-11T14:22:40.206Z,7.28
2019-02-11T14:25:10.836Z,7.32
2019-02-11T14:27:41.382Z,7.34
2019-02-11T14:30:12.602Z,7.45
2019-02-11T14:32:43.283Z,7.65
2019-02-11T14:35:13.720Z,7.94
2019-02-11T14:37:44.576Z,8.09
2019-02-11T14:40:15.532Z,8.13
2019-02-11T14:42:45.939Z,8.21
2019-02-11T14:45:16.703Z,8.28
2019-02-11T14:47:47.217Z,8.33
2019-02-11T14:50:17.872Z,8.42
2019-02-11T14:52:48.288Z,8.28
2019-02-11T14:55:18.653Z,8.15
2019-02-11T14:57:49.706Z,8.25
2019-02-11T15:00:21.876Z,8.19
2019-02-11T15:02:52.707Z,7.95
2019-02-11T15:05:23.142Z,7.68
2019-02-11T15:07:53.456Z,7.56
2019-02-11T15:10:23.813Z,7.41
2019-02-11T15:12:54.245Z,7.15
2019-02-11T15:15:24.882Z,6.00
2019-02-11T15:17:55.356Z,5.69
2019-02-11T15:20:25.884Z,5.40
2019-02-11T15:22:56.789Z,5.22
2019-02-11T15:25:27.118Z,5.10
2019-02-11T15:27:57.590Z,4.97
2019-02-11T15:30:28.086Z,5.02
2019-02-11T15:32:59.151Z,4.97
2019-02-11T15:35:30.854Z,4.90
2019-02-11T15:38:01.957Z,4.88
2019-02-11T15:40:32.474Z,4.86
2019-02-11T15:43:02.845Z,4.92
2019-02-11T15:45:33.629Z,4.93
2019-02-11T15:48:07.737Z,4.88
2019-02-11T15:50:39.339Z,4.74
2019-02-11T15:53:09.707Z,4.78
2019-02-11T15:55:41.176Z,4.82
2019-02-11T15:58:11.500Z,4.72
2019-02-11T16:00:42.662Z,4.70
2019-02-11T16:03:12.957Z,4.67
2019-02-11T16:05:49.471Z,4.54
2019-02-11T16:08:15.594Z,4.50
2019-02-11T16:10:46.030Z,4.44
2019-02-11T16:13:16.409Z,4.46
2019-02-11T16:15:48.518Z,4.50
2019-02-11T16:18:18.911Z,4.57
2019-02-11T16:20:51.140Z,4.61
2019-02-11T16:23:23.005Z,4.56
2019-02-11T16:25:56.239Z,4.51
2019-02-11T16:28:26.863Z,4.45
2019-02-11T16:30:59.128Z,4.36
2019-02-11T16:33:29.658Z,4.30
2019-02-11T16:36:32.029Z,4.22
2019-02-11T16:39:02.515Z,4.24
2019-02-11T16:41:32.982Z,4.23
2019-02-11T16:44:03.366Z,4.18
2019-02-11T16:46:36.041Z,4.15
2019-02-11T16:49:06.401Z,4.14
2019-02-11T16:51:36.752Z,4.11
2019-02-11T16:54:07.216Z,4.07
2019-02-11T16:56:37.607Z,4.07
2019-02-11T16:59:08.011Z,4.09
2019-02-11T17:01:39.533Z,4.14
2019-02-11T17:04:09.885Z,4.17
2019-02-11T17:06:40.326Z,4.19
2019-02-11T17:09:10.905Z,4.21
2019-02-11T17:11:41.285Z,4.30
2019-02-11T17:14:11.770Z,4.30
2019-02-11T17:16:42.171Z,4.28
2019-02-11T17:19:12.577Z,4.25
2019-02-11T17:21:43.505Z,4.33
2019-02-11T17:24:13.858Z,4.23
2019-02-11T17:26:44.841Z,4.07
2019-02-11T17:29:15.235Z,4.02
2019-02-11T17:31:45.737Z,3.95
2019-02-11T17:34:16.213Z,3.89
2019-02-11T17:36:47.156Z,3.91
2019-02-11T17:39:17.703Z,3.85
2019-02-11T17:41:48.042Z,3.94
2019-02-11T17:44:18.488Z,3.93
2019-02-11T17:46:49.425Z,3.99
2019-02-11T17:49:19.758Z,4.06
2019-02-11T17:51:50.249Z,4.07
2019-02-11T17:54:20.581Z,4.12
2019-02-11T17:56:51.038Z,4.12
2019-02-11T17:59:21.376Z,4.14
2019-02-11T18:01:51.867Z,4.13
2019-02-11T18:04:22.367Z,4.19
2019-02-11T18:06:52.770Z,4.10
2019-02-11T18:09:23.074Z,4.11
2019-02-11T18:11:55.445Z,4.06
2019-02-11T18:14:26.218Z,4.08
2019-02-11T18:16:58.035Z,4.07
2019-02-11T18:19:28.476Z,4.19
2019-02-11T18:21:58.948Z,4.10
2019-02-11T18:24:29.291Z,4.12
2019-02-11T18:26:59.665Z,4.14
2019-02-11T18:29:30.710Z,4.08
2019-02-11T18:32:01.340Z,4.16
2019-02-11T18:34:31.908Z,4.13
2019-02-11T18:37:02.319Z,4.06
2019-02-11T18:39:32.668Z,4.03
2019-02-11T18:42:03.184Z,3.99
2019-02-11T18:44:34.109Z,3.98
2019-02-11T18:47:04.971Z,3.95
2019-02-11T18:49:38.479Z,3.95
2019-02-11T18:52:09.691Z,3.98
2019-02-11T18:54:40.305Z,3.95
2019-02-11T18:57:11.550Z,3.94
2019-02-11T18:59:42.569Z,3.92
2019-02-11T19:02:13.316Z,3.88
2019-02-11T19:04:44.333Z,3.90
2019-02-11T19:07:16.018Z,3.88
2019-02-11T19:09:46.605Z,3.79
2019-02-11T19:12:17.344Z,3.82
2019-02-11T19:14:51.307Z,3.83
2019-02-11T19:17:22.477Z,3.77
2019-02-11T19:19:54.175Z,3.80
2019-02-11T19:22:24.815Z,3.80
2019-02-11T19:24:55.429Z,3.74
2019-02-11T19:27:26.891Z,3.73
2019-02-11T19:29:58.290Z,3.64
2019-02-11T19:32:28.987Z,3.60
2019-02-11T19:35:03.263Z,3.59
2019-02-11T19:37:34.052Z,3.59
2019-02-11T19:40:05.952Z,3.59
2019-02-11T19:42:36.868Z,3.58
2019-02-11T19:45:08.220Z,3.63
2019-02-11T19:47:39.652Z,3.62
2019-02-11T19:50:11.416Z,3.55
2019-02-11T19:52:42.332Z,3.49
2019-02-11T19:55:13.474Z,3.59
2019-02-11T19:57:44.542Z,3.58
2019-02-11T20:00:19.898Z,3.61
2019-02-11T20:02:51.663Z,3.51
2019-02-11T20:05:22.459Z,3.64
2019-02-11T20:07:53.117Z,3.58
2019-02-11T20:10:23.709Z,3.61
2019-02-11T20:12:57.611Z,3.58
2019-02-11T20:15:28.218Z,3.49
2019-02-11T20:17:58.739Z,3.46
2019-02-11T20:20:29.152Z,3.41
2019-02-11T20:23:01.823Z,3.43
2019-02-11T20:25:32.455Z,3.49
2019-02-11T20:28:02.839Z,3.45
2019-02-11T20:30:33.272Z,3.41
2019-02-11T20:33:04.534Z,3.33
2019-02-11T20:35:35.604Z,3.27
2019-02-11T20:38:07.149Z,3.17
2019-02-11T20:40:38.616Z,3.13
2019-02-11T20:43:12.318Z,3.07
2019-02-11T20:45:42.854Z,3.05
2019-02-11T20:48:18.806Z,3.09
2019-02-11T20:50:49.193Z,3.05
2019-02-11T20:53:19.630Z,2.96
2019-02-11T20:55:50.396Z,2.99
2019-02-11T20:58:21.140Z,3.02
2019-02-11T21:00:58.977Z,3.02
2019-02-11T21:03:33.357Z,2.99
2019-02-11T21:06:04.177Z,2.93
2019-02-11T21:08:34.626Z,2.96
2019-02-11T21:11:07.484Z,2.91
2019-02-11T21:13:38.416Z,2.89
2019-02-11T21:16:08.765Z,2.84
2019-02-11T21:18:39.361Z,2.86
2019-02-11T21:21:11.596Z,2.94
2019-02-11T21:23:43.388Z,2.90
2019-02-11T21:26:14.272Z,2.81
2019-02-11T21:28:47.401Z,2.81
2019-02-11T21:31:20.376Z,2.77
2019-02-11T21:33:53.155Z,2.82
2019-02-11T21:36:24.591Z,2.76
2019-02-11T21:38:54.965Z,2.68
2019-02-11T21:41:26.126Z,2.63
2019-02-11T21:43:56.639Z,2.60
2019-02-11T21:46:27.444Z,2.61
2019-02-11T21:48:57.764Z,2.58
2019-02-11T21:51:29.259Z,2.56
2019-02-11T21:53:59.792Z,2.52
2019-02-11T21:56:30.202Z,2.48
2019-02-11T21:59:00.844Z,2.39
2019-02-11T22:01:31.320Z,2.45
2019-02-11T22:04:05.388Z,2.50
2019-02-11T22:06:36.130Z,2.43
2019-02-11T22:09:08.437Z,2.34
2019-02-11T22:11:38.913Z,2.42
2019-02-11T22:14:09.939Z,2.53
2019-02-11T22:16:40.354Z,2.51
2019-02-11T22:19:11.054Z,2.46
2019-02-11T22:21:41.399Z,2.65
2019-02-11T22:24:11.881Z,2.67
2019-02-11T22:26:42.209Z,2.71
2019-02-11T22:29:12.681Z,2.73
2019-02-11T22:31:43.049Z,2.74
2019-02-11T22:34:13.421Z,2.72
2019-02-11T22:36:43.828Z,2.77
2019-02-11T22:39:14.210Z,2.79
2019-02-11T22:41:53.100Z,2.78
2019-02-11T22:44:28.883Z,2.78
2019-02-11T22:46:59.490Z,2.81
2019-02-11T22:49:29.957Z,2.83
2019-02-11T22:52:01.822Z,2.89
2019-02-11T22:54:33.515Z,2.90
2019-02-11T22:57:04.047Z,3.04
2019-02-11T22:59:34.525Z,3.16
2019-02-11T23:02:05.389Z,3.27
2019-02-11T23:04:36.149Z,3.27
2019-02-11T23:07:06.589Z,3.42
2019-02-11T23:09:36.895Z,3.49
2019-02-11T23:12:07.689Z,3.51
2019-02-11T23:14:38.144Z,3.52
2019-02-11T23:17:08.572Z,3.50
2019-02-11T23:19:39.023Z,3.50
2019-02-11T23:22:09.459Z,3.43
2019-02-11T23:24:40.848Z,3.37
2019-02-11T23:27:11.307Z,3.37
2019-02-11T23:29:41.729Z,3.35
2019-02-11T23:32:12.059Z,3.37
2019-02-11T23:34:43.157Z,3.46
2019-02-11T23:37:17.321Z,3.45
2019-02-11T23:39:50.181Z,3.48
2019-02-11T23:42:20.700Z,3.55
2019-02-11T23:44:52.193Z,3.59
2019-02-11T23:47:22.584Z,3.61
2019-02-11T23:49:53.025Z,3.61
2019-02-11T23:52:23.466Z,3.60
2019-02-11T23:54:53.825Z,3.69
2019-02-11T23:57:28.744Z,3.70
2019-02-11T23:59:59.594Z,3.70
